Time;durP1;ratioP1;P1;durP2;ratioP2;P2;SDS_P1;SDS_P2;PMS_P1;PMS_P2;Temp;Humidity;BMP_temperature;BMP_pressure;BME280_temperature;BME280_humidity;BME280_pressure;Samples;Min_cycle;Max_cycle;Signal;HPM_P1;HPM_P2
2022/02/15 00:02:25;;;;;;;4.73;4.53;;;8.50;53.20;;;;;;5093944;28;20173;-82
2022/02/15 00:04:51;;;;;;;4.07;3.97;;;8.50;53.10;;;;;;5094237;28;20173;-83
2022/02/15 00:08:06;;;;;;;3.73;3.63;;;8.40;53.00;;;;;;5094282;28;20507;-83
2022/02/15 00:10:32;;;;;;;4.13;4.03;;;8.40;52.90;;;;;;5094016;28;20805;-83
2022/02/15 00:13:02;;;;;;;3.97;3.87;;;8.40;53.70;;;;;;5094117;28;20450;-83
2022/02/15 00:15:27;;;;;;;4.27;4.10;;;8.40;53.60;;;;;;5094189;28;20181;-83
2022/02/15 00:17:53;;;;;;;4.10;3.97;;;8.40;53.20;;;;;;5093967;28;20571;-83
2022/02/15 00:20:19;;;;;;;3.50;3.40;;;8.40;53.20;;;;;;5094158;28;20212;-83
2022/02/15 00:22:45;;;;;;;4.40;4.10;;;8.40;53.60;;;;;;5094425;28;20182;-83
2022/02/15 00:25:10;;;;;;;4.30;4.10;;;8.40;53.90;;;;;;5093904;28;20169;-83
2022/02/15 00:27:36;;;;;;;3.90;3.80;;;8.20;54.10;;;;;;5093711;28;20698;-83
2022/02/15 00:30:02;;;;;;;4.40;4.30;;;8.30;54.00;;;;;;5093861;28;20633;-83
2022/02/15 00:32:28;;;;;;;4.20;4.10;;;8.30;54.10;;;;;;5092639;28;20178;-83
2022/02/15 00:34:53;;;;;;;4.30;4.10;;;8.30;54.30;;;;;;5093976;28;20580;-84
2022/02/15 00:37:19;;;;;;;3.70;3.60;;;8.30;54.20;;;;;;5093537;28;20186;-83
2022/02/15 00:39:45;;;;;;;4.83;4.30;;;8.20;54.60;;;;;;5093380;28;20198;-83
2022/02/15 00:42:10;;;;;;;4.53;4.37;;;8.20;55.10;;;;;;5093400;28;20174;-83
2022/02/15 00:44:36;;;;;;;4.00;3.90;;;8.10;55.10;;;;;;5112059;28;20174;-84
2022/02/15 00:47:02;;;;;;;4.20;4.10;;;8.10;54.90;;;;;;5092809;28;20178;-84
2022/02/15 00:49:28;;;;;;;4.13;4.03;;;8.20;55.60;;;;;;5093432;28;20197;-84
2022/02/15 00:51:54;;;;;;;3.73;3.63;;;8.20;55.30;;;;;;5093097;28;20170;-82
2022/02/15 00:54:20;;;;;;;4.30;4.20;;;8.20;55.70;;;;;;5092271;28;20189;-82
2022/02/15 00:56:46;;;;;;;3.93;3.83;;;8.20;55.70;;;;;;5092695;28;20416;-82
2022/02/15 00:59:11;;;;;;;4.90;4.70;;;8.10;55.30;;;;;;5092231;28;20251;-82
2022/02/15 01:01:38;;;;;;;4.40;4.20;;;8.10;54.90;;;;;;5092036;28;20170;-82
2022/02/15 01:04:04;;;;;;;4.10;3.90;;;8.20;54.60;;;;;;5109748;28;20170;-82
2022/02/15 01:06:32;;;;;;;4.17;3.97;;;8.20;54.80;;;;;;5091644;28;20488;-82
2022/02/15 01:08:58;;;;;;;5.03;4.83;;;8.10;55.60;;;;;;5091614;28;20502;-83
2022/02/15 01:11:23;;;;;;;4.50;4.30;;;8.10;55.10;;;;;;5091784;28;20514;-84
2022/02/15 01:13:52;;;;;;;4.63;4.43;;;8.10;55.10;;;;;;5091374;28;20416;-83
2022/02/15 01:16:17;;;;;;;4.00;3.90;;;8.10;54.70;;;;;;5095155;28;20419;-83
2022/02/15 01:18:43;;;;;;;4.93;4.73;;;8.10;55.10;;;;;;5095905;28;20462;-83
2022/02/15 01:21:09;;;;;;;4.53;4.33;;;8.10;55.50;;;;;;5096135;28;20260;-83
2022/02/15 01:23:34;;;;;;;4.90;4.67;;;8.10;54.90;;;;;;5094985;28;20178;-83
2022/02/15 01:26:00;;;;;;;4.70;4.50;;;8.10;55.10;;;;;;5093709;28;20418;-83
2022/02/15 01:28:26;;;;;;;5.10;4.70;;;8.00;54.90;;;;;;5094735;28;20178;-83
2022/02/15 01:30:51;;;;;;;4.00;3.90;;;8.10;55.00;;;;;;5094333;28;20521;-83
2022/02/15 01:33:17;;;;;;;4.10;3.97;;;8.10;55.30;;;;;;5094907;28;20242;-83
2022/02/15 01:35:43;;;;;;;3.90;3.80;;;8.10;55.10;;;;;;5094845;28;20178;-83
2022/02/15 01:38:08;;;;;;;4.73;4.53;;;8.00;54.90;;;;;;5094416;28;20181;-84
2022/02/15 01:40:34;;;;;;;4.63;4.40;;;8.00;55.00;;;;;;5094415;28;20231;-84
2022/02/15 01:43:01;;;;;;;4.30;4.20;;;7.90;55.40;;;;;;5112461;28;20215;-83
2022/02/15 01:45:27;;;;;;;5.00;4.80;;;7.80;55.80;;;;;;5094102;28;20423;-82
2022/02/15 01:47:53;;;;;;;5.07;4.87;;;7.80;55.70;;;;;;5093977;28;20412;-83
2022/02/15 01:50:19;;;;;;;4.80;4.53;;;7.80;56.20;;;;;;5093922;28;20460;-84
2022/02/15 01:52:45;;;;;;;4.73;4.53;;;7.80;55.60;;;;;;5094312;28;20919;-89
2022/02/15 01:55:13;;;;;;;4.10;4.00;;;7.90;55.40;;;;;;5095365;28;20519;-83
2022/02/15 01:57:40;;;;;;;4.70;4.50;;;7.80;55.30;;;;;;5094594;28;20510;-83
2022/02/15 02:00:12;;;;;;;4.87;4.67;;;7.80;55.40;;;;;;5093925;28;20539;-83
2022/02/15 02:02:37;;;;;;;5.07;4.80;;;7.80;55.60;;;;;;5093240;28;20419;-84
2022/02/15 02:07:47;;;;;;;4.30;4.20;;;7.80;55.70;;;;;;5112135;28;20586;-83
2022/02/15 02:10:14;;;;;;;4.03;3.93;;;7.70;55.60;;;;;;5092898;28;20416;-84
2022/02/15 02:12:40;;;;;;;4.03;3.90;;;7.80;55.50;;;;;;5093332;28;20173;-83
2022/02/15 02:15:16;;;;;;;4.20;4.00;;;7.80;55.30;;;;;;5093558;28;20480;-83
2022/02/15 02:17:42;;;;;;;4.23;4.13;;;7.80;55.10;;;;;;5093128;28;20443;-83
2022/02/15 02:20:08;;;;;;;4.80;4.60;;;7.70;55.70;;;;;;5093239;28;20830;-83
2022/02/15 02:22:33;;;;;;;4.20;4.00;;;7.70;55.40;;;;;;5093594;28;20204;-83
2022/02/15 02:24:59;;;;;;;4.10;3.90;;;7.80;55.10;;;;;;5093710;28;20419;-83
2022/02/15 02:27:28;;;;;;;4.13;4.03;;;7.80;55.10;;;;;;5092673;28;20506;-83
2022/02/15 02:29:54;;;;;;;4.50;4.30;;;7.60;55.20;;;;;;5093182;28;20431;-82
2022/02/15 02:32:25;;;;;;;4.90;4.67;;;7.60;55.80;;;;;;5092792;28;20783;-82
2022/02/15 02:34:52;;;;;;;5.20;4.90;;;7.60;56.00;;;;;;5092317;28;20415;-83
2022/02/15 02:37:18;;;;;;;5.03;4.83;;;7.60;55.90;;;;;;5093036;28;20638;-83
2022/02/15 02:39:47;;;;;;;4.73;4.40;;;7.50;55.70;;;;;;5092224;28;20455;-83
2022/02/15 02:42:15;;;;;;;4.20;4.10;;;7.50;56.00;;;;;;5092540;28;20804;-83
2022/02/15 02:44:40;;;;;;;4.37;4.20;;;7.50;55.90;;;;;;5092846;28;20416;-83
2022/02/15 02:47:07;;;;;;;4.10;4.00;;;7.50;55.40;;;;;;5092838;28;20415;-83
2022/02/15 02:49:33;;;;;;;5.00;4.70;;;7.60;55.20;;;;;;5092187;28;20184;-83
2022/02/15 02:52:00;;;;;;;4.30;4.10;;;7.60;55.20;;;;;;5092802;28;21029;-84
2022/02/15 02:54:25;;;;;;;4.27;4.07;;;7.60;54.40;;;;;;5092375;28;20412;-84
2022/02/15 02:56:52;;;;;;;4.30;4.10;;;7.70;54.70;;;;;;5092158;28;20472;-84
2022/02/15 02:59:18;;;;;;;4.83;4.63;;;7.60;55.30;;;;;;5111031;28;20192;-83
2022/02/15 03:01:44;;;;;;;4.10;4.00;;;7.60;55.40;;;;;;5091928;28;20507;-83
2022/02/15 03:04:09;;;;;;;4.70;4.40;;;7.50;55.60;;;;;;5092411;28;20676;-84
2022/02/15 03:06:35;;;;;;;5.17;4.80;;;7.40;55.90;;;;;;5092519;28;20377;-84
2022/02/15 03:09:01;;;;;;;5.93;5.60;;;7.50;56.00;;;;;;5092436;28;20178;-83
2022/02/15 03:11:27;;;;;;;5.03;4.73;;;7.50;55.80;;;;;;5110616;28;20411;-83
2022/02/15 03:13:53;;;;;;;4.70;4.50;;;7.50;55.90;;;;;;5092378;28;21034;-83
2022/02/15 03:16:18;;;;;;;4.80;4.60;;;7.50;56.00;;;;;;5092025;28;20665;-83
2022/02/15 03:18:44;;;;;;;5.80;5.20;;;7.50;56.30;;;;;;5092297;28;20237;-83
2022/02/15 03:21:10;;;;;;;4.93;4.70;;;7.50;56.10;;;;;;5110318;28;20223;-83
2022/02/15 03:23:36;;;;;;;5.33;4.83;;;7.50;55.50;;;;;;5091332;28;20265;-84
2022/02/15 03:26:02;;;;;;;4.43;4.17;;;7.50;55.70;;;;;;5109673;28;20170;-83
2022/02/15 03:28:28;;;;;;;5.93;4.10;;;7.50;55.30;;;;;;5091697;28;20549;-83
2022/02/15 03:30:53;;;;;;;4.30;4.00;;;7.60;55.60;;;;;;5091300;28;20403;-83
2022/02/15 03:33:19;;;;;;;4.77;4.57;;;7.50;55.80;;;;;;5091885;28;20594;-83
2022/02/15 03:35:45;;;;;;;4.67;4.47;;;7.60;55.20;;;;;;5092028;28;20204;-83
2022/02/15 03:38:10;;;;;;;4.17;4.00;;;7.60;54.30;;;;;;5093945;28;20177;-83
2022/02/15 03:43:20;;;;;;;3.90;3.80;;;7.70;54.10;;;;;;5110761;28;20279;-84
2022/02/15 03:45:46;;;;;;;4.60;4.30;;;7.50;54.50;;;;;;5091798;28;20943;-83
2022/02/15 03:48:12;;;;;;;5.00;4.70;;;7.50;54.80;;;;;;5091331;28;20700;-84
2022/02/15 03:50:38;;;;;;;4.53;4.33;;;7.50;54.80;;;;;;5093184;28;20452;-83
2022/02/15 03:53:04;;;;;;;4.70;4.40;;;7.60;54.20;;;;;;5092425;28;20212;-83
2022/02/15 03:55:30;;;;;;;5.17;4.97;;;7.60;54.60;;;;;;5092136;28;20178;-84
2022/02/15 03:57:56;;;;;;;5.37;5.17;;;7.60;54.10;;;;;;5091879;28;20485;-83
2022/02/15 04:00:22;;;;;;;4.37;4.27;;;7.70;53.60;;;;;;5091249;28;21156;-83
2022/02/15 04:02:47;;;;;;;4.57;4.47;;;7.70;54.00;;;;;;5091630;28;20170;-83
2022/02/15 04:05:13;;;;;;;5.57;5.27;;;7.80;53.00;;;;;;5091844;28;20520;-83
2022/02/15 04:07:39;;;;;;;4.53;4.23;;;7.80;53.60;;;;;;5090955;28;20594;-83
2022/02/15 04:10:05;;;;;;;5.23;5.03;;;7.70;53.40;;;;;;5091520;28;20641;-82
2022/02/15 04:12:31;;;;;;;4.97;4.57;;;7.80;53.50;;;;;;5092093;28;20170;-87
2022/02/15 04:14:56;;;;;;;4.80;4.50;;;7.90;52.60;;;;;;5093500;28;20755;-91
2022/02/15 04:17:22;;;;;;;4.93;4.80;;;7.90;52.50;;;;;;5092976;28;20204;-88
2022/02/15 04:19:48;;;;;;;5.17;4.77;;;7.80;52.50;;;;;;5092008;28;20255;-89
2022/02/15 04:22:15;;;;;;;5.43;5.13;;;7.80;52.80;;;;;;5091379;28;20170;-88
2022/02/15 04:24:41;;;;;;;5.17;4.87;;;7.80;52.30;;;;;;5091847;28;20652;-87
2022/02/15 04:27:10;;;;;;;5.10;4.80;;;7.80;53.10;;;;;;5091924;28;20656;-90
2022/02/15 04:29:35;;;;;;;5.33;4.93;;;7.80;52.80;;;;;;5091252;28;20177;-89
2022/02/15 04:32:01;;;;;;;5.50;5.23;;;7.90;52.00;;;;;;5092119;28;20419;-85
2022/02/15 04:34:27;;;;;;;4.63;4.53;;;7.90;51.80;;;;;;5110029;28;20414;-82
2022/02/15 04:36:56;;;;;;;5.40;5.10;;;7.90;52.20;;;;;;5091570;28;20180;-84
2022/02/15 04:39:21;;;;;;;5.20;5.00;;;7.90;52.20;;;;;;5090431;28;20480;-84
2022/02/15 04:41:47;;;;;;;5.00;4.73;;;8.00;52.10;;;;;;5091431;28;20572;-83
2022/02/15 04:44:13;;;;;;;5.67;5.37;;;7.90;52.00;;;;;;5091170;28;20256;-83
2022/02/15 04:46:38;;;;;;;6.03;4.87;;;7.90;51.70;;;;;;5090881;28;20688;-83
2022/02/15 04:49:04;;;;;;;5.13;4.93;;;7.80;52.20;;;;;;5089800;28;20223;-83
2022/02/15 04:51:30;;;;;;;5.73;5.37;;;7.80;52.90;;;;;;5090931;28;20276;-83
2022/02/15 04:53:55;;;;;;;5.60;5.40;;;7.80;53.00;;;;;;5090854;28;20186;-84
2022/02/15 04:56:21;;;;;;;5.23;4.93;;;7.80;52.40;;;;;;5090959;28;21053;-84
2022/02/15 04:58:47;;;;;;;5.27;5.07;;;7.80;53.00;;;;;;5091078;28;20677;-83
2022/02/15 05:01:14;;;;;;;6.23;5.93;;;7.90;52.30;;;;;;5092427;28;20270;-81
2022/02/15 05:03:40;;;;;;;5.57;5.27;;;7.80;51.80;;;;;;5093371;28;20174;-82
2022/02/15 05:06:06;;;;;;;5.47;5.27;;;7.80;52.60;;;;;;5093539;28;20422;-83
2022/02/15 05:08:31;;;;;;;5.30;5.10;;;7.70;52.80;;;;;;5094678;28;20419;-83
2022/02/15 05:10:57;;;;;;;5.90;5.40;;;7.70;52.90;;;;;;5095274;28;20273;-83
2022/02/15 05:13:23;;;;;;;5.60;5.30;;;7.70;52.50;;;;;;5094832;28;20178;-81
2022/02/15 05:15:49;;;;;;;6.23;5.70;;;7.70;52.20;;;;;;5094432;28;20582;-82
2022/02/15 05:18:15;;;;;;;6.40;6.10;;;7.80;52.80;;;;;;5093110;28;20481;-83
2022/02/15 05:20:41;;;;;;;6.27;5.73;;;7.70;52.60;;;;;;5093437;28;20467;-83
2022/02/15 05:23:07;;;;;;;6.90;5.27;;;7.70;52.40;;;;;;5093072;28;20223;-83
2022/02/15 05:25:33;;;;;;;5.43;5.13;;;7.80;52.80;;;;;;5093643;28;20178;-84
2022/02/15 05:27:59;;;;;;;6.47;6.03;;;7.80;53.00;;;;;;5092858;28;20900;-83
2022/02/15 05:30:26;;;;;;;5.50;5.20;;;7.70;53.30;;;;;;5093445;28;20941;-83
2022/02/15 05:32:53;;;;;;;4.83;4.60;;;7.70;53.30;;;;;;5093208;28;20463;-83
2022/02/15 05:35:18;;;;;;;5.70;5.40;;;7.70;53.20;;;;;;5093243;28;20423;-82
2022/02/15 05:37:44;;;;;;;5.63;5.43;;;7.80;53.10;;;;;;5093180;28;20469;-83
2022/02/15 05:40:12;;;;;;;5.70;5.40;;;7.70;53.90;;;;;;5093197;28;20459;-82
2022/02/15 05:42:39;;;;;;;5.40;5.00;;;7.70;53.80;;;;;;5093064;28;20420;-82
2022/02/15 05:45:05;;;;;;;5.50;5.30;;;7.70;53.50;;;;;;5093346;28;20457;-82
2022/02/15 05:47:33;;;;;;;6.40;5.80;;;7.70;53.60;;;;;;5092656;28;20435;-82
2022/02/15 05:52:43;;;;;;;5.50;5.20;;;7.90;53.50;;;;;;5110985;28;20512;-83
2022/02/15 05:55:10;;;;;;;5.27;5.07;;;7.70;53.70;;;;;;5091360;28;20469;-83
2022/02/15 05:57:36;;;;;;;6.87;6.33;;;7.80;53.70;;;;;;5091937;28;20193;-83
2022/02/15 06:00:05;;;;;;;6.80;6.50;;;7.80;53.90;;;;;;5091658;28;20467;-83
2022/02/15 06:02:31;;;;;;;6.43;5.93;;;7.70;54.10;;;;;;5096345;28;20918;-83
2022/02/15 06:04:57;;;;;;;5.83;5.53;;;7.70;54.50;;;;;;5096215;28;20442;-83
2022/02/15 06:07:22;;;;;;;5.60;5.40;;;7.70;54.20;;;;;;5096014;28;20184;-83
2022/02/15 06:09:48;;;;;;;6.53;5.93;;;7.70;54.20;;;;;;5095963;28;20186;-83
2022/02/15 06:12:14;;;;;;;6.40;6.10;;;7.70;54.00;;;;;;5095889;28;20209;-83
2022/02/15 06:14:40;;;;;;;7.20;6.70;;;7.70;54.00;;;;;;5096077;28;20239;-83
2022/02/15 06:17:06;;;;;;;10.67;5.87;;;7.70;54.30;;;;;;5096117;28;20194;-83
2022/02/15 06:19:32;;;;;;;5.77;5.47;;;7.60;54.60;;;;;;5095781;28;20484;-83
2022/02/15 06:21:57;;;;;;;5.17;4.97;;;7.60;54.70;;;;;;5095783;28;20626;-83
2022/02/15 06:24:24;;;;;;;5.47;5.27;;;7.70;54.10;;;;;;5095547;28;20447;-83
2022/02/15 06:26:51;;;;;;;5.90;5.60;;;7.80;54.30;;;;;;5095368;28;20196;-83
2022/02/15 06:29:16;;;;;;;6.53;6.33;;;7.80;54.20;;;;;;5095640;28;20416;-83
2022/02/15 06:31:44;;;;;;;6.40;6.17;;;7.80;53.90;;;;;;5096005;28;20419;-83
2022/02/15 06:34:10;;;;;;;5.20;5.00;;;7.80;54.20;;;;;;5095172;28;20470;-84
2022/02/15 06:36:35;;;;;;;5.63;5.33;;;7.80;53.80;;;;;;5095273;28;20460;-82
2022/02/15 06:39:02;;;;;;;5.90;5.60;;;7.80;54.10;;;;;;5113673;28;20205;-82
2022/02/15 06:41:28;;;;;;;5.77;5.37;;;7.80;53.60;;;;;;5095324;28;20230;-82
2022/02/15 06:43:53;;;;;;;8.03;6.00;;;7.90;53.40;;;;;;5094646;28;20411;-82
2022/02/15 06:46:19;;;;;;;6.77;5.20;;;7.80;53.60;;;;;;5094930;28;20415;-82
2022/02/15 06:48:45;;;;;;;6.33;5.93;;;7.90;54.10;;;;;;5089854;28;20653;-82
2022/02/15 06:51:11;;;;;;;6.07;5.77;;;7.80;53.70;;;;;;5074701;28;20181;-82
2022/02/15 06:53:36;;;;;;;6.43;5.60;;;7.90;53.40;;;;;;5074913;28;20619;-81
2022/02/15 06:56:02;;;;;;;6.10;5.70;;;7.80;53.80;;;;;;5074957;28;20259;-81
2022/02/15 06:58:28;;;;;;;6.70;5.60;;;7.80;54.00;;;;;;5076993;28;20608;-81
2022/02/15 07:00:54;;;;;;;5.60;5.30;;;7.80;55.30;;;;;;5090025;27;20466;-81
2022/02/15 07:03:19;;;;;;;5.80;5.60;;;7.80;57.20;;;;;;5105188;27;20264;-81
2022/02/15 07:05:45;;;;;;;6.57;6.07;;;7.60;58.10;;;;;;5106526;27;20187;-81
2022/02/15 07:08:11;;;;;;;5.23;5.03;;;7.60;59.00;;;;;;5115614;27;20241;-81
2022/02/15 07:10:36;;;;;;;5.63;5.40;;;7.60;58.80;;;;;;5115067;27;20181;-81
2022/02/15 07:13:02;;;;;;;4.80;4.70;;;7.60;59.90;;;;;;5113880;27;20649;-82
2022/02/15 07:15:29;;;;;;;5.50;5.30;;;7.60;59.90;;;;;;5118091;27;20706;-82
2022/02/15 07:17:56;;;;;;;5.10;4.90;;;7.50;59.80;;;;;;5123825;27;20446;-83
2022/02/15 07:20:22;;;;;;;6.23;5.57;;;7.50;59.80;;;;;;5103085;27;20458;-82
2022/02/15 07:22:48;;;;;;;5.23;5.03;;;7.50;60.20;;;;;;5101161;27;20482;-83
2022/02/15 07:25:14;;;;;;;5.17;4.97;;;7.50;60.00;;;;;;5103018;28;20173;-83
2022/02/15 07:27:40;;;;;;;5.60;5.40;;;7.50;60.60;;;;;;5102311;28;20827;-84
2022/02/15 07:30:06;;;;;;;5.23;5.03;;;7.60;60.60;;;;;;5115523;27;20451;-85
2022/02/15 07:32:32;;;;;;;4.90;4.80;;;7.60;59.90;;;;;;5115225;27;20920;-85
2022/02/15 07:34:57;;;;;;;5.47;5.17;;;7.60;59.90;;;;;;5115917;27;20422;-85
2022/02/15 07:37:25;;;;;;;5.50;5.20;;;7.60;60.60;;;;;;5134480;27;20177;-84
2022/02/15 07:39:51;;;;;;;5.20;5.00;;;7.60;59.90;;;;;;5115535;27;20212;-85
2022/02/15 07:42:16;;;;;;;5.67;5.37;;;7.60;60.40;;;;;;5119901;27;20442;-85
2022/02/15 07:44:42;;;;;;;6.87;6.43;;;7.60;59.60;;;;;;5115327;27;20173;-86
2022/02/15 07:47:08;;;;;;;5.57;5.17;;;7.70;59.10;;;;;;5115541;27;20174;-86
2022/02/15 07:49:34;;;;;;;5.33;5.03;;;7.70;59.40;;;;;;5102626;28;20259;-87
2022/02/15 07:52:00;;;;;;;4.47;4.27;;;7.60;58.20;;;;;;5108391;27;20803;-84
2022/02/15 07:54:27;;;;;;;5.27;5.07;;;7.60;58.80;;;;;;5106220;27;20470;-85
2022/02/15 07:56:53;;;;;;;4.90;4.70;;;7.50;59.00;;;;;;5114837;27;20418;-85
2022/02/15 07:59:18;;;;;;;5.17;4.67;;;7.50;59.10;;;;;;5115015;27;20461;-85
2022/02/15 08:01:44;;;;;;;4.83;4.60;;;7.60;59.90;;;;;;5114887;27;20438;-86
2022/02/15 08:04:13;;;;;;;5.30;4.97;;;7.60;59.80;;;;;;5114772;27;20531;-85
2022/02/15 08:06:40;;;;;;;4.73;4.63;;;7.60;58.90;;;;;;5114246;27;20450;-86
2022/02/15 08:09:05;;;;;;;5.20;5.00;;;7.60;58.30;;;;;;5114275;27;20417;-82
2022/02/15 08:11:38;;;;;;;5.33;4.83;;;7.70;59.00;;;;;;5114095;27;20426;-83
2022/02/15 08:14:04;;;;;;;4.73;4.53;;;7.80;58.50;;;;;;5114248;27;20652;-83
2022/02/15 08:16:30;;;;;;;4.93;4.73;;;8.00;57.70;;;;;;5113874;27;20505;-82
2022/02/15 08:18:55;;;;;;;6.17;5.40;;;8.00;56.60;;;;;;5113933;27;20257;-85
2022/02/15 08:21:21;;;;;;;4.77;4.60;;;8.00;57.20;;;;;;5114157;27;20201;-85
2022/02/15 08:23:47;;;;;;;5.10;4.80;;;7.90;56.40;;;;;;5113889;27;20354;-85
2022/02/15 08:26:12;;;;;;;5.10;4.90;;;7.80;56.30;;;;;;5113966;27;20181;-85
2022/02/15 08:28:43;;;;;;;5.17;4.97;;;7.80;57.10;;;;;;5112954;27;20173;-85
2022/02/15 08:31:12;;;;;;;5.17;4.97;;;7.80;57.30;;;;;;5093971;28;20180;-84
2022/02/15 08:33:39;;;;;;;4.97;4.73;;;7.90;57.30;;;;;;5092762;28;20419;-85
2022/02/15 08:36:05;;;;;;;5.13;4.93;;;7.90;55.80;;;;;;5093473;28;20408;-85
2022/02/15 08:38:33;;;;;;;5.27;5.03;;;7.80;55.40;;;;;;5112227;28;20426;-85
2022/02/15 08:41:05;;;;;;;6.80;6.40;;;7.90;56.00;;;;;;5093190;28;20893;-84
2022/02/15 08:43:30;;;;;;;5.77;5.57;;;7.90;56.50;;;;;;5092960;28;20872;-85
2022/02/15 08:45:56;;;;;;;5.45;5.15;;;7.90;55.40;;;;;;5092355;28;20995;-84
2022/02/15 08:48:23;;;;;;;5.27;5.07;;;7.90;55.50;;;;;;5092865;28;20170;-84
2022/02/15 08:50:49;;;;;;;5.90;5.60;;;7.90;56.30;;;;;;5092389;28;20435;-84
2022/02/15 08:53:14;;;;;;;4.90;4.70;;;8.00;55.40;;;;;;5093215;28;20408;-84
2022/02/15 08:55:40;;;;;;;4.97;4.63;;;8.00;55.50;;;;;;5093395;28;20412;-84
2022/02/15 08:58:06;;;;;;;6.63;6.20;;;7.90;55.40;;;;;;5093380;28;20174;-84
2022/02/15 09:00:33;;;;;;;4.67;4.53;;;8.00;55.50;;;;;;5092832;28;20206;-84
2022/02/15 09:02:59;;;;;;;4.43;4.27;;;8.00;55.10;;;;;;5092618;28;20552;-84
2022/02/15 09:05:25;;;;;;;4.40;4.30;;;8.10;54.70;;;;;;5092828;28;20438;-84
2022/02/15 09:07:51;;;;;;;4.43;4.30;;;8.10;55.00;;;;;;5093475;28;20178;-84
2022/02/15 09:10:19;;;;;;;5.10;4.80;;;8.10;54.90;;;;;;5093016;28;20422;-84
2022/02/15 09:12:44;;;;;;;4.60;4.40;;;8.20;54.30;;;;;;5092640;28;20198;-83
2022/02/15 09:15:13;;;;;;;4.60;4.40;;;8.20;54.50;;;;;;5093090;28;20469;-84
2022/02/15 09:17:39;;;;;;;4.60;4.50;;;8.10;54.20;;;;;;5092681;28;20285;-83
2022/02/15 09:20:13;;;;;;;4.73;4.53;;;8.20;53.40;;;;;;5093079;28;20467;-83
2022/02/15 09:22:40;;;;;;;5.33;4.67;;;8.20;53.50;;;;;;5092834;28;20447;-84
2022/02/15 09:25:06;;;;;;;4.67;4.47;;;8.20;53.10;;;;;;5092974;28;20419;-84
2022/02/15 09:27:32;;;;;;;4.30;4.07;;;8.20;53.40;;;;;;5092626;28;20407;-84
2022/02/15 09:29:58;;;;;;;4.03;3.93;;;8.10;53.90;;;;;;5092924;28;21022;-84
2022/02/15 09:32:23;;;;;;;4.57;4.27;;;8.10;54.60;;;;;;5091863;28;20584;-84
2022/02/15 09:34:49;;;;;;;4.20;4.10;;;8.10;54.00;;;;;;5092341;28;20586;-84
2022/02/15 09:37:15;;;;;;;4.60;4.40;;;8.20;53.90;;;;;;5095809;28;20465;-84
2022/02/15 09:39:40;;;;;;;5.27;5.07;;;8.20;53.30;;;;;;5095951;28;20202;-84
2022/02/15 09:42:09;;;;;;;6.00;5.70;;;8.30;53.60;;;;;;5096206;28;20178;-85
2022/02/15 09:44:35;;;;;;;4.93;4.73;;;8.40;52.10;;;;;;5096146;28;20549;-84
2022/02/15 09:47:02;;;;;;;5.07;4.77;;;8.40;52.60;;;;;;5095854;28;20412;-85
2022/02/15 09:52:14;;;;;;;5.60;5.30;;;8.40;52.10;;;;;;5114609;28;20449;-85
2022/02/15 09:54:42;;;;;;;5.50;5.27;;;8.50;51.10;;;;;;5094723;28;20408;-85
2022/02/15 09:57:08;;;;;;;5.30;5.00;;;8.60;50.30;;;;;;5093726;28;20930;-83
2022/02/15 09:59:34;;;;;;;7.37;5.23;;;8.70;49.90;;;;;;5074799;28;20460;-82
2022/02/15 10:02:04;;;;;;;4.80;4.50;;;8.60;50.50;;;;;;5075347;28;20415;-85
2022/02/15 10:04:34;;;;;;;4.83;4.53;;;8.70;49.20;;;;;;5075897;28;20416;-80
2022/02/15 10:07:07;;;;;;;5.07;4.87;;;8.70;48.60;;;;;;5075306;28;20507;-80
2022/02/15 10:09:33;;;;;;;4.60;4.43;;;8.70;48.00;;;;;;5074959;28;20424;-80
2022/02/15 10:12:11;;;;;;;4.97;4.77;;;8.80;47.40;;;;;;5075115;28;20932;-80
2022/02/15 10:14:38;;;;;;;4.50;4.30;;;8.70;47.60;;;;;;5075319;28;20439;-80
2022/02/15 10:17:07;;;;;;;4.87;4.27;;;8.80;46.70;;;;;;5074655;28;20860;-80
2022/02/15 10:19:32;;;;;;;4.10;3.97;;;8.80;46.20;;;;;;5075147;28;20519;-80
2022/02/15 10:22:01;;;;;;;5.13;4.80;;;8.80;46.20;;;;;;5074998;28;20505;-83
2022/02/15 10:24:32;;;;;;;5.27;4.97;;;8.90;45.40;;;;;;5074085;28;20167;-82
2022/02/15 10:27:01;;;;;;;4.90;4.60;;;8.90;45.60;;;;;;5074819;28;20420;-83
2022/02/15 10:29:31;;;;;;;5.63;5.20;;;8.90;45.90;;;;;;5074500;28;20432;-82
2022/02/15 10:31:59;;;;;;;4.77;4.57;;;8.90;45.50;;;;;;5074888;28;20767;-82
2022/02/15 10:34:25;;;;;;;4.40;4.10;;;8.90;45.90;;;;;;5074459;28;20409;-82
2022/02/15 10:36:55;;;;;;;4.27;4.07;;;9.00;45.10;;;;;;5074947;28;20424;-82
2022/02/15 10:39:21;;;;;;;4.20;3.90;;;8.90;45.10;;;;;;5074256;28;20526;-82
2022/02/15 10:41:47;;;;;;;4.30;4.20;;;9.00;44.00;;;;;;5074690;28;20554;-82
2022/02/15 10:44:15;;;;;;;3.83;3.73;;;8.90;42.00;;;;;;5074469;28;20405;-82
2022/02/15 10:46:40;;;;;;;5.23;3.73;;;9.00;41.70;;;;;;5074146;28;20420;-82
2022/02/15 10:49:07;;;;;;;3.90;3.70;;;8.90;41.10;;;;;;5074693;28;20408;-82
2022/02/15 10:51:33;;;;;;;4.07;3.87;;;8.90;41.70;;;;;;5074020;28;20573;-82
2022/02/15 10:53:59;;;;;;;3.57;3.37;;;8.90;41.70;;;;;;5073766;28;20416;-82
2022/02/15 10:56:30;;;;;;;5.10;4.80;;;8.90;41.70;;;;;;5074276;28;20828;-82
2022/02/15 10:59:00;;;;;;;3.80;3.70;;;8.90;42.30;;;;;;5074411;28;20532;-82
2022/02/15 11:01:26;;;;;;;3.73;3.63;;;9.00;41.80;;;;;;5073928;28;20778;-82
2022/02/15 11:03:53;;;;;;;4.33;4.13;;;8.90;41.70;;;;;;5074136;28;20413;-82
2022/02/15 11:06:18;;;;;;;3.40;3.30;;;9.00;41.70;;;;;;5074046;28;20167;-82
2022/02/15 11:08:47;;;;;;;4.07;3.77;;;9.10;41.70;;;;;;5073933;28;20939;-82
2022/02/15 11:11:23;;;;;;;3.70;3.50;;;8.90;41.70;;;;;;5074030;28;20253;-82
2022/02/15 11:13:50;;;;;;;3.63;3.53;;;8.90;42.50;;;;;;5073734;28;20416;-82
2022/02/15 11:16:21;;;;;;;3.47;3.37;;;8.90;41.70;;;;;;5073327;28;20472;-82
2022/02/15 11:18:47;;;;;;;3.50;3.40;;;8.90;41.70;;;;;;5074008;28;20412;-82
2022/02/15 11:21:25;;;;;;;3.60;3.50;;;8.90;41.70;;;;;;5073766;28;20416;-82
2022/02/15 11:23:59;;;;;;;4.43;4.20;;;8.90;41.70;;;;;;5073847;28;20783;-82
2022/02/15 11:26:42;;;;;;;4.70;4.30;;;9.00;41.70;;;;;;5073729;28;20413;-82
2022/02/15 11:29:25;;;;;;;4.77;4.40;;;8.90;41.50;;;;;;5073806;28;20421;-82
2022/02/15 11:31:53;;;;;;;4.03;3.70;;;8.90;41.70;;;;;;5073511;28;20424;-82
2022/02/15 11:34:29;;;;;;;3.97;3.67;;;8.90;41.10;;;;;;5079828;28;20429;-82
2022/02/15 11:36:56;;;;;;;4.40;4.20;;;8.90;41.40;;;;;;5074006;28;20411;-82
2022/02/15 11:39:27;;;;;;;4.17;3.97;;;8.90;39.90;;;;;;5082338;28;20466;-80
2022/02/15 11:41:55;;;;;;;4.00;3.80;;;8.90;39.20;;;;;;5102753;27;20410;-80
2022/02/15 11:44:35;;;;;;;3.70;3.60;;;8.90;40.10;;;;;;5094677;28;20419;-80
2022/02/15 11:47:23;;;;;;;4.40;4.10;;;8.90;40.00;;;;;;5102605;28;20408;-80
2022/02/15 11:50:00;;;;;;;3.93;3.60;;;8.90;39.40;;;;;;5094087;28;20473;-80
2022/02/15 11:52:28;;;;;;;4.63;4.33;;;9.00;38.70;;;;;;5093187;28;20964;-80
2022/02/15 11:55:05;;;;;;;3.63;3.47;;;9.00;38.20;;;;;;5093887;28;20830;-79
2022/02/15 11:57:31;;;;;;;4.30;4.20;;;8.90;36.60;;;;;;5093352;28;20828;-80
2022/02/15 11:59:57;;;;;;;3.67;3.57;;;9.00;37.00;;;;;;5092917;28;20431;-80
2022/02/15 12:02:23;;;;;;;3.80;3.60;;;8.90;36.80;;;;;;5093810;28;20758;-82
2022/02/15 12:05:04;;;;;;;3.90;3.80;;;9.00;36.70;;;;;;5094489;27;20428;-83
2022/02/15 12:07:30;;;;;;;3.90;3.80;;;9.00;36.70;;;;;;5092613;27;20177;-81
2022/02/15 12:09:59;;;;;;;3.83;3.73;;;9.10;36.10;;;;;;5104228;27;20422;-80
2022/02/15 12:12:36;;;;;;;3.43;3.33;;;9.10;36.60;;;;;;5113619;27;20403;-81
2022/02/15 12:15:06;;;;;;;4.27;4.03;;;9.10;36.80;;;;;;5113460;27;20415;-81
2022/02/15 12:17:32;;;;;;;4.37;4.17;;;9.10;37.20;;;;;;5113138;27;20439;-81
2022/02/15 12:19:59;;;;;;;4.10;3.90;;;9.20;37.20;;;;;;5102744;28;20549;-79
2022/02/15 12:22:27;;;;;;;4.73;4.43;;;9.30;37.80;;;;;;5096016;27;20502;-79
2022/02/15 12:24:55;;;;;;;4.80;4.60;;;9.20;38.40;;;;;;5103633;27;20407;-80
2022/02/15 12:27:23;;;;;;;4.40;4.20;;;9.30;38.10;;;;;;5113100;27;20423;-84
2022/02/15 12:29:54;;;;;;;4.60;3.90;;;9.30;37.90;;;;;;5113867;27;20902;-85
2022/02/15 12:32:40;;;;;;;3.87;3.67;;;9.30;37.40;;;;;;5112964;27;20830;-82
2022/02/15 12:35:08;;;;;;;4.37;4.17;;;9.30;36.90;;;;;;5113588;27;20419;-82
2022/02/15 12:37:34;;;;;;;4.03;3.83;;;9.40;36.60;;;;;;5098301;28;20423;-83
2022/02/15 12:40:03;;;;;;;4.10;3.97;;;9.30;36.80;;;;;;5088640;28;20464;-83
2022/02/15 12:42:29;;;;;;;9.90;5.27;;;9.30;37.70;;;;;;5096690;28;21164;-85
2022/02/15 12:45:04;;;;;;;4.07;3.77;;;9.20;38.50;;;;;;5091194;28;20416;-84
2022/02/15 12:47:32;;;;;;;4.40;4.07;;;9.20;38.00;;;;;;5094495;28;20552;-84
2022/02/15 12:49:58;;;;;;;4.77;4.37;;;9.30;38.00;;;;;;5094790;28;20419;-84
2022/02/15 12:52:29;;;;;;;5.90;4.23;;;9.30;38.20;;;;;;5094600;28;20918;-86
2022/02/15 12:54:57;;;;;;;15.93;4.33;;;9.30;39.00;;;;;;5113020;28;20443;-91
2022/02/15 12:57:24;;;;;;;4.63;4.40;;;9.20;39.10;;;;;;5099006;27;20434;-89
2022/02/15 13:00:01;;;;;;;4.30;4.10;;;9.30;38.80;;;;;;5085997;28;20482;-88
2022/02/15 13:02:35;;;;;;;4.60;4.40;;;9.40;38.90;;;;;;5101745;28;20422;-88
2022/02/15 13:05:01;;;;;;;5.23;4.83;;;9.50;37.60;;;;;;5115574;28;20410;-89
2022/02/15 13:07:27;;;;;;;4.90;4.60;;;9.50;38.30;;;;;;5114936;28;20928;-89
2022/02/15 13:09:57;;;;;;;5.20;5.00;;;9.60;37.40;;;;;;5113252;28;20423;-85